Latest Weather Observations for Hughenden

IDQ60801

Issued at 6:02 am EST Monday 5 December 2016 (issued every 30 minutes, with the page automatically refreshed every 10 minutes)

About weather observations | Map of weather stations | Latest weather observations for QLD | Other Formats
Station Details ID: 030022 Name: HUGHENDEN AIRPORT Lat: -20.82 Lon: 144.23 Height: 316.4 m
Data from the previous 72 hours. | See also: Recent months at Hughenden
Date/Time
EST
Temp
°C
App
Temp
°C
Dew
Point
°C
Rel
Hum
%
Delta-T
°C
Wind Press
QNH
hPa
Press
MSL
hPa
Rain since
9am
mm
Dir  Spd
km/h
Gust
km/h
Spd
kts
Gust
kts
05/06:00am 26.5 22.5 6.5 28 10.6 NE 17 19 9 10 1013.4 - -
05/05:30am 26.7 22.0 6.2 27 10.8 NE 20 24 11 13 1012.9 1010.5 0.0
05/05:00am 26.5 22.5 6.5 28 10.6 NE 17 20 9 11 1012.6 1010.2 0.0
05/04:30am 26.7 22.0 6.2 27 10.8 NE 20 24 11 13 1012.2 1009.8 0.0
05/04:00am 27.0 22.8 5.9 26 11.1 NE 17 20 9 11 1011.9 1009.5 0.0
05/03:30am 27.6 23.9 6.4 26 11.3 NE 15 20 8 11 1011.8 1009.4 0.0
05/03:00am 27.6 24.7 6.4 26 11.3 NNE 11 15 6 8 1011.8 1009.4 0.0
05/02:30am 28.1 25.3 6.8 26 11.5 NNE 11 15 6 8 1011.7 1009.3 0.0
05/02:00am 28.3 25.9 7.0 26 11.5 NNE 9 13 5 7 1011.8 1009.4 0.0
05/01:30am 28.3 26.3 7.0 26 11.5 NNE 7 13 4 7 1011.9 1009.5 0.0
05/01:00am 29.1 26.7 7.1 25 12.0 NNE 9 13 5 7 1012.0 1009.6 0.0
05/12:30am 28.9 26.1 6.9 25 11.9 NE 11 13 6 7 1012.2 1009.8 0.0
05/12:00am 29.5 26.3 6.8 24 12.3 NE 13 15 7 8 1012.5 1010.1 0.0
 
Date/Time
EST
Temp
°C
App
Temp
°C
Dew
Point
°C
Rel
Hum
%
Delta-T
°C
Wind Press
QNH
hPa
Press
MSL
hPa
Rain since
9am
mm
Dir  Spd
km/h
Gust
km/h
Spd
kts
Gust
kts
04/11:30pm 29.8 26.8 5.8 22 12.8 NE 11 13 6 7 1012.6 1010.2 0.0
04/11:00pm 30.9 27.9 6.0 21 13.4 NE 11 15 6 8 1012.7 1010.3 0.0
04/10:30pm 31.7 28.3 6.0 20 13.9 NE 13 15 7 8 1012.7 1010.3 0.0
04/10:00pm 31.9 28.9 6.2 20 14.0 ENE 11 13 6 7 1012.5 1010.1 0.0
04/09:30pm 32.9 29.4 5.5 18 14.8 ENE 13 17 7 9 1012.2 1009.8 0.0
04/09:00pm 33.4 30.1 6.6 19 14.8 NE 13 17 7 9 1011.9 1009.5 0.0
04/08:30pm 34.3 30.7 6.6 18 15.3 ENE 15 19 8 10 1011.5 1009.1 0.0
04/08:00pm 35.0 31.7 6.3 17 15.9 NE 13 17 7 9 1011.0 1008.6 0.0
04/07:30pm 36.2 32.1 6.4 16 16.6 ENE 17 24 9 13 1010.8 1008.3 0.0
04/07:00pm 36.8 32.3 5.9 15 17.2 ENE 19 28 10 15 1010.5 1008.0 0.0
04/06:30pm 37.7 32.9 5.6 14 17.8 ENE 20 30 11 16 1010.1 1007.6 0.0
04/06:00pm 38.4 32.7 5.1 13 18.4 ENE 24 32 13 17 1009.9 1007.5 0.0
04/05:30pm 39.3 34.5 5.8 13 18.8 ENE 20 35 11 19 1009.7 1007.3 0.0
04/05:00pm 39.4 34.4 4.7 12 19.2 ENE 20 33 11 18 1009.6 1007.2 0.0
04/04:30pm 39.9 34.8 3.9 11 19.7 NE 20 30 11 16 1009.7 1007.3 0.0
04/04:00pm 40.3 35.4 4.2 11 19.9 ENE 19 35 10 19 1009.8 1007.4 0.0
04/03:30pm 40.5 35.6 4.3 11 20.0 E 19 32 10 17 1009.9 1007.5 0.0
04/03:00pm 40.1 34.9 2.7 10 20.1 ENE 19 33 10 18 1010.4 1007.9 0.0
04/02:30pm 40.8 35.5 3.2 10 20.4 ENE 20 32 11 17 1010.7 1008.2 0.0
04/02:00pm 40.1 34.7 2.7 10 20.1 NE 20 35 11 19 1011.0 1008.6 0.0
04/01:30pm 39.9 33.4 2.5 10 20.0 E 26 35 14 19 1011.3 1008.9 0.0
04/01:16pm 39.5 33.3 2.2 10 19.8 ENE 24 46 13 25 1011.6 1009.2 0.0
04/01:00pm 39.9 34.0 3.9 11 19.7 NE 24 39 13 21 1011.8 1009.4 0.0
04/12:30pm 39.9 34.0 3.9 11 19.7 NE 24 37 13 20 1012.3 1009.9 0.0
04/12:00pm 38.9 32.9 3.1 11 19.2 NE 24 35 13 19 1012.9 1010.5 0.0
04/11:30am 38.4 32.3 2.8 11 19.0 ENE 24 35 13 19 1013.5 1011.0 0.0
04/11:17am 38.6 31.5 1.6 10 19.4 ENE 28 48 15 26 1013.8 1011.4 0.0
04/11:00am 38.9 32.6 1.8 10 19.6 ENE 24 35 13 19 1013.8 1011.4 0.0
04/10:30am 38.2 33.0 2.6 11 18.9 NE 19 30 10 16 1014.1 1011.7 0.0
04/10:00am 37.5 33.0 2.1 11 18.6 NE 15 20 8 11 1014.0 1011.6 0.0
04/09:30am 35.5 30.6 1.8 12 17.4 NNE 17 24 9 13 1014.3 1011.9 0.0
04/09:00am 34.5 29.2 2.1 13 16.7 NE 19 26 10 14 1014.4 1012.0 0.0
04/08:30am 33.1 27.6 2.1 14 15.9 NE 20 30 11 16 1014.3 1011.9 0.0
04/08:00am 31.7 26.2 1.9 15 15.1 NNE 20 30 11 16 1014.2 1011.8 0.0
04/07:30am 30.2 24.8 2.5 17 14.0 NNE 20 28 11 15 1013.8 1011.4 0.0
04/07:00am 28.6 23.5 4.2 21 12.6 NNE 20 32 11 17 1013.7 1011.2 0.0
04/06:30am 28.0 23.8 5.6 24 11.8 NE 17 22 9 12 1013.3 1010.9 0.0
04/06:00am 27.4 24.0 3.8 22 12.0 NNE 11 17 6 9 1013.0 1010.6 0.0
04/05:30am 27.1 23.8 4.8 24 11.5 NE 11 13 6 7 1012.7 1010.3 0.0
04/05:00am 27.0 23.7 4.7 24 11.5 NE 11 17 6 9 1012.5 1010.1 0.0
04/04:30am 26.8 23.5 4.6 24 11.4 NE 11 15 6 8 1012.2 1009.8 0.0
04/04:00am 26.8 22.7 4.6 24 11.4 NE 15 19 8 10 1011.9 1009.5 0.0
04/03:30am 27.2 22.4 4.9 24 11.6 NE 19 24 10 13 1011.5 1009.1 0.0
04/03:00am 27.7 23.4 5.3 24 11.7 NE 17 20 9 11 1011.4 1009.0 0.0
04/02:30am 28.1 23.7 5.0 23 12.1 NE 17 20 9 11 1011.4 1009.0 0.0
04/02:00am 28.1 24.4 4.4 22 12.3 NE 13 17 7 9 1011.6 1009.2 0.0
04/01:30am 28.1 24.8 4.4 22 12.2 NE 11 15 6 8 1011.7 1009.3 0.0
04/01:00am 28.4 25.1 4.6 22 12.4 NNE 11 13 6 7 1011.8 1009.4 0.0
04/12:30am 28.3 25.4 4.6 22 12.3 NNE 9 13 5 7 1012.0 1009.6 0.0
04/12:00am 28.7 25.8 4.9 22 12.5 NE 9 11 5 6 1012.1 1009.7 0.0
 
Date/Time
EST
Temp
°C
App
Temp
°C
Dew
Point
°C
Rel
Hum
%
Delta-T
°C
Wind Press
QNH
hPa
Press
MSL
hPa
Rain since
9am
mm
Dir  Spd
km/h
Gust
km/h
Spd
kts
Gust
kts
03/11:30pm 29.6 26.4 5.0 21 13.0 NE 11 13 6 7 1012.2 1009.8 0.0
03/11:00pm 30.9 27.0 5.3 20 13.7 NE 15 19 8 10 1012.2 1009.8 0.0
03/10:30pm 30.3 27.3 4.1 19 13.6 NE 9 9 5 5 1012.2 1009.8 0.0
03/10:00pm 31.3 27.6 4.2 18 14.2 NE 13 13 7 7 1012.0 1009.6 0.0
03/09:30pm 31.5 27.6 3.5 17 14.5 NE 13 15 7 8 1011.7 1009.3 0.0
03/09:00pm 33.1 28.6 2.1 14 15.9 NE 15 19 8 10 1011.5 1009.1 0.0
03/08:30pm 34.2 29.7 1.9 13 16.6 NE 15 19 8 10 1011.1 1008.7 0.0
03/08:00pm 35.4 30.6 2.8 13 17.1 ENE 17 22 9 12 1010.9 1008.5 0.0
03/07:30pm 36.2 31.0 2.3 12 17.7 ENE 19 24 10 13 1010.7 1008.2 0.0
03/07:00pm 37.0 31.7 1.7 11 18.4 ENE 19 24 10 13 1010.5 1008.0 0.0
03/06:30pm 37.8 32.7 1.0 10 19.0 NE 17 20 9 11 1010.3 1007.8 0.0
03/06:00pm 38.5 32.9 1.5 10 19.4 NE 20 30 11 16 1010.1 1007.6 0.0
03/05:30pm 39.1 34.2 1.9 10 19.7 NE 17 28 9 15 1009.9 1007.5 0.0
03/05:00pm 39.4 34.5 2.2 10 19.8 ENE 17 24 9 13 1009.7 1007.3 0.0
03/04:30pm 40.4 35.8 1.4 9 20.6 ENE 15 30 8 16 1009.6 1007.2 0.0
03/04:00pm 39.6 34.4 2.3 10 19.9 ENE 19 33 10 18 1009.8 1007.4 0.0
03/03:30pm 39.7 34.2 0.9 9 20.3 ENE 19 30 10 16 1009.8 1007.4 0.0
03/03:00pm 39.5 35.0 2.2 10 19.9 NE 15 24 8 13 1010.1 1007.6 0.0
03/02:30pm 39.3 34.8 2.1 10 19.7 SE 15 22 8 12 1010.5 1008.0 0.0
03/02:00pm 39.3 34.4 2.1 10 19.8 E 17 32 9 17 1010.8 1008.3 0.0
03/01:30pm 39.9 34.1 2.5 10 20.0 NE 22 33 12 18 1011.2 1008.8 0.0
03/01:00pm 39.9 35.3 3.9 11 19.7 ESE 17 37 9 20 1011.6 1009.2 0.0
03/12:30pm 39.6 36.7 4.9 12 19.2 NW 9 26 5 14 1012.1 1009.7 0.0
03/12:00pm 38.3 35.3 6.1 14 18.1 ESE 11 20 6 11 1012.5 1010.1 0.0
03/11:30am 37.7 35.1 7.6 16 17.2 NW 11 19 6 10 1013.1 1010.7 0.0
03/11:00am 37.2 34.1 7.2 16 17.0 NNW 13 22 7 12 1013.3 1010.9 0.0
03/10:30am 36.2 32.7 7.3 17 16.3 N 15 28 8 15 1013.8 1011.4 0.0
03/10:00am 34.7 32.8 10.5 23 14.3 NNW 11 20 6 11 1014.1 1011.7 0.0
03/09:30am 33.3 32.5 11.8 27 12.9 NNE 7 13 4 7 1014.2 1011.8 0.0
03/09:00am 32.3 31.2 12.0 29 12.1 NE 9 13 5 7 1014.2 1011.8 0.0
03/08:30am 31.0 29.9 11.9 31 11.3 NNE 9 15 5 8 1014.3 1011.9 0.0
03/08:00am 29.6 28.5 12.1 34 10.3 NE 9 13 5 7 1014.1 1011.7 0.0
03/07:30am 28.4 27.7 13.1 39 9.1 NE 9 11 5 6 1014.1 1011.7 0.0
03/07:00am 27.2 26.6 13.5 42 8.2 NNE 9 13 5 7 1014.0 1011.6 0.0
03/06:30am 25.6 25.4 13.5 47 7.2 NNE 7 11 4 6 1013.7 1011.2 0.0
03/06:00am 24.2 23.7 13.7 52 6.2 NNE 9 13 5 7 1013.3 1010.9 0.0
03/05:30am 23.7 23.1 13.6 53 6.0 NE 9 9 5 5 1013.1 1010.7 0.0
03/05:00am 24.2 23.7 13.7 52 6.2 WNW 9 11 5 6 1012.7 1010.3 0.0
03/04:30am 24.8 23.9 13.7 50 6.6 WNW 11 13 6 7 1012.8 1010.4 0.0
03/04:00am 25.4 23.8 13.9 49 6.9 W 15 19 8 10 1012.8 1010.4 0.0
03/03:30am 26.5 24.5 13.9 45 7.6 W 17 24 9 13 1012.6 1010.2 0.0
03/03:00am 27.2 26.0 13.9 44 8.0 WNW 13 20 7 11 1012.1 1009.7 0.0
03/02:30am 25.8 26.6 13.6 47 7.3 NE 2 6 1 3 1011.9 1009.5 0.0
03/02:00am 26.2 26.3 14.0 47 7.3 N 6 7 3 4 1011.8 1009.4 0.0
03/01:30am 26.2 27.0 13.7 46 7.5 ENE 2 6 1 3 1011.8 1009.4 0.0
03/01:00am 27.6 27.5 13.9 43 8.3 NE 7 9 4 5 1012.0 1009.6 0.0
03/12:30am 28.6 27.8 14.1 41 8.8 N 11 13 6 7 1012.2 1009.8 0.0
03/12:00am 29.3 27.3 13.9 39 9.4 N 17 20 9 11 1012.4 1010.0 0.0
 
Date/Time
EST
Temp
°C
App
Temp
°C
Dew
Point
°C
Rel
Hum
%
Delta-T
°C
Wind Press
QNH
hPa
Press
MSL
hPa
Rain since
9am
mm
Dir  Spd
km/h
Gust
km/h
Spd
kts
Gust
kts
02/11:30pm 29.8 28.4 12.3 34 10.4 N 11 15 6 8 1012.3 1009.9 0.0
02/11:00pm 30.2 28.3 11.7 32 10.9 N 13 17 7 9 1012.0 1009.6 0.0
02/10:30pm 30.2 28.7 10.7 30 11.3 WNW 9 11 5 6 1012.1 1009.7 0.0
02/10:00pm 30.9 29.1 10.8 29 11.7 NW 11 13 6 7 1012.3 1009.9 0.0
02/09:30pm 29.9 27.0 12.3 33 10.5 SSW 19 33 10 18 1012.2 1009.8 0.0
02/09:00pm 31.5 30.4 11.8 30 11.7 WNW 9 15 5 8 1011.4 1009.0 0.0
02/08:30pm 31.8 29.3 11.0 28 12.2 WNW 15 20 8 11 1011.7 1009.3 0.0
02/08:00pm 32.1 30.2 11.8 29 12.1 WNW 13 17 7 9 1011.7 1009.3 0.0
02/07:30pm 32.3 30.5 12.0 29 12.1 WNW 13 15 7 8 1011.1 1008.7 0.0
02/07:00pm 33.3 31.8 11.8 27 12.9 WSW 11 17 6 9 1010.9 1008.5 0.0
02/06:30pm 35.2 33.6 11.6 24 14.2 NW 11 17 6 9 1010.7 1008.2 0.0
02/06:00pm 35.9 33.4 10.9 22 14.9 NNW 15 19 8 10 1010.2 1007.7 0.0
02/05:30pm 35.9 33.1 11.5 23 14.7 N 17 24 9 13 1009.7 1007.3 0.0
02/05:00pm 36.0 31.5 10.2 21 15.2 N 24 32 13 17 1009.4 1007.0 0.0
02/04:30pm 37.7 33.8 10.9 20 16.1 N 22 30 12 16 1009.0 1006.6 0.0
02/04:00pm 37.5 33.8 11.5 21 15.7 N 22 30 12 16 1009.1 1006.7 0.0
02/03:30pm 36.2 31.2 11.1 22 15.0 N 28 37 15 20 1009.6 1007.2 0.0
02/03:00pm 37.7 34.0 10.1 19 16.4 NNE 20 32 11 17 1009.7 1007.3 0.0
02/02:30pm 38.9 34.7 11.1 19 16.8 N 24 33 13 18 1009.7 1007.3 0.0
02/02:00pm 38.4 36.0 11.5 20 16.3 NNE 15 32 8 17 1009.9 1007.5 0.0
02/01:30pm 38.6 35.8 10.0 18 17.0 E 15 26 8 14 1010.6 1008.1 0.0
02/01:00pm 37.3 36.0 9.8 19 16.2 NE 7 15 4 8 1011.2 1008.8 0.0
02/12:30pm 38.2 35.8 11.3 20 16.3 W 15 32 8 17 1011.8 1009.4 0.0
02/12:00pm 37.8 36.1 12.4 22 15.6 WSW 13 20 7 11 1012.2 1009.8 0.0
02/11:30am 37.1 35.8 13.8 25 14.5 W 13 20 7 11 1012.7 1010.3 0.0
02/11:00am 35.9 34.5 12.2 24 14.4 WNW 11 20 6 11 1013.0 1010.6 0.0
02/10:30am 35.3 33.7 12.9 26 13.7 NW 13 26 7 14 1013.3 1010.9 0.0
02/10:00am 34.5 32.7 13.3 27 13.0 WNW 15 32 8 17 1013.6 1011.1 0.0
02/09:30am 33.5 31.2 13.0 29 12.5 NW 17 24 9 13 1013.8 1011.4 0.0
02/09:00am 33.1 30.5 13.2 30 12.1 NW 19 26 10 14 1013.8 1011.4 0.0
02/08:30am 31.9 30.2 13.6 32 11.2 NNW 15 20 8 11 1013.8 1011.4 0.0
02/08:00am 30.8 28.6 14.4 36 10.1 NNW 19 26 10 14 1013.3 1010.9 0.0
02/07:30am 30.0 28.2 14.5 38 9.5 NNW 17 26 9 14 1013.1 1010.7 0.0
02/07:00am 28.3 27.8 14.9 44 8.2 N 11 15 6 8 1012.8 1010.4 0.0
02/06:30am 27.4 27.5 15.4 48 7.4 N 9 11 5 6 1012.6 1010.2 0.0

Other Formats:

Comma delimited format used in spreadsheet applications
http://www.bom.gov.au/fwo/IDQ60801/IDQ60801.94343.axf

JavaScript Object Notation format (JSON) in row-major order
http://www.bom.gov.au/fwo/IDQ60801/IDQ60801.94343.json